Time;durP1;ratioP1;P1;durP2;ratioP2;P2;SDS_P1;SDS_P2;PMS_P1;PMS_P2;Temp;Humidity;BMP_temperature;BMP_pressure;BME280_temperature;BME280_humidity;BME280_pressure;Samples;Min_cycle;Max_cycle;Signal;HPM_P1;HPM_P2
2021/11/11 00:00:25;;;;;;;21.27;11.65;;;4.10;99.90;;;;;;5017849;28;20030;-85
2021/11/11 00:02:51;;;;;;;18.13;9.93;;;4.30;99.90;;;;;;5017722;28;20026;-85
2021/11/11 00:05:17;;;;;;;19.58;9.75;;;4.30;99.90;;;;;;5017755;28;20079;-86
2021/11/11 00:07:43;;;;;;;16.48;10.32;;;4.60;99.90;;;;;;5035421;28;20029;-85
2021/11/11 00:10:11;;;;;;;21.48;9.45;;;4.50;99.90;;;;;;5017891;28;20025;-86
2021/11/11 00:12:37;;;;;;;16.65;10.05;;;4.40;99.90;;;;;;5035279;28;20025;-85
2021/11/11 00:15:06;;;;;;;22.83;9.68;;;4.40;99.90;;;;;;5017406;28;20428;-86
2021/11/11 00:17:32;;;;;;;15.55;9.48;;;4.10;99.90;;;;;;5017516;28;20021;-85
2021/11/11 00:19:57;;;;;;;17.52;9.65;;;4.20;99.90;;;;;;5017389;28;20025;-86
2021/11/11 00:22:24;;;;;;;18.50;10.10;;;4.30;99.90;;;;;;5017281;28;20128;-85
2021/11/11 00:24:50;;;;;;;19.08;8.82;;;4.30;99.90;;;;;;5017289;28;20047;-86
2021/11/11 00:27:16;;;;;;;17.23;9.45;;;4.50;99.90;;;;;;5017427;28;20129;-86
2021/11/11 00:29:42;;;;;;;15.55;9.07;;;4.40;99.90;;;;;;5017307;28;20026;-86
2021/11/11 00:32:08;;;;;;;17.50;9.63;;;4.30;99.90;;;;;;5038191;28;20140;-86
2021/11/11 00:34:34;;;;;;;16.83;8.98;;;4.40;99.90;;;;;;5018684;28;20025;-85
2021/11/11 00:37:00;;;;;;;13.65;8.57;;;4.20;99.90;;;;;;5023198;28;20021;-85
2021/11/11 00:39:25;;;;;;;15.80;9.50;;;4.20;99.90;;;;;;5018222;28;20116;-86
2021/11/11 00:41:51;;;;;;;16.48;8.68;;;4.30;99.90;;;;;;5017372;28;20048;-86
2021/11/11 00:44:17;;;;;;;16.13;8.85;;;4.20;99.90;;;;;;5017077;28;20036;-86
2021/11/11 00:46:43;;;;;;;19.75;9.32;;;4.10;99.90;;;;;;5034719;28;20052;-86
2021/11/11 00:49:09;;;;;;;17.52;8.68;;;3.90;99.90;;;;;;5016855;28;20029;-85
2021/11/11 00:51:39;;;;;;;14.25;8.52;;;4.00;99.90;;;;;;5016705;28;20033;-86
2021/11/11 00:54:06;;;;;;;18.52;9.30;;;3.90;99.90;;;;;;5034450;28;20060;-85
2021/11/11 00:56:33;;;;;;;16.25;9.00;;;3.80;99.90;;;;;;5016705;28;20080;-86
2021/11/11 00:59:00;;;;;;;17.52;9.45;;;4.00;99.90;;;;;;5016743;28;20512;-85
2021/11/11 01:01:30;;;;;;;20.15;9.10;;;3.80;99.90;;;;;;5016778;28;20075;-86
2021/11/11 01:03:57;;;;;;;16.17;8.88;;;4.00;99.90;;;;;;5016711;28;20552;-86
2021/11/11 01:06:25;;;;;;;16.48;8.70;;;4.00;99.90;;;;;;5016648;28;20021;-85
2021/11/11 01:08:52;;;;;;;18.70;8.18;;;4.00;99.90;;;;;;5016510;28;20112;-85
2021/11/11 01:11:18;;;;;;;19.48;8.05;;;4.10;99.90;;;;;;5016538;28;20033;-85
2021/11/11 01:13:44;;;;;;;14.70;7.53;;;4.40;99.90;;;;;;5016400;28;20096;-85
2021/11/11 01:16:09;;;;;;;14.95;8.88;;;4.40;99.90;;;;;;5016382;28;20044;-85
2021/11/11 01:18:35;;;;;;;17.58;8.63;;;4.20;99.90;;;;;;5016295;28;20022;-86
2021/11/11 01:21:01;;;;;;;14.95;8.52;;;4.00;99.90;;;;;;5016044;28;20391;-86
2021/11/11 01:23:27;;;;;;;13.65;7.78;;;4.30;99.90;;;;;;5016244;28;20032;-85
2021/11/11 01:25:52;;;;;;;19.88;8.80;;;4.30;99.90;;;;;;5016243;28;20503;-85
2021/11/11 01:28:18;;;;;;;12.00;7.63;;;4.50;99.90;;;;;;5016170;28;20424;-86
2021/11/11 01:30:44;;;;;;;14.93;8.40;;;4.40;99.90;;;;;;5016050;28;20030;-86
2021/11/11 01:33:13;;;;;;;15.35;7.60;;;4.60;99.90;;;;;;5015966;28;20401;-85
2021/11/11 01:35:39;;;;;;;17.80;8.57;;;4.50;99.90;;;;;;5016036;28;20076;-85
2021/11/11 01:38:05;;;;;;;14.15;8.60;;;4.40;99.90;;;;;;5015902;28;20025;-86
2021/11/11 01:40:31;;;;;;;14.40;7.85;;;4.00;99.90;;;;;;5015996;28;20124;-85
2021/11/11 01:43:01;;;;;;;14.57;8.43;;;3.80;99.90;;;;;;5015842;28;20553;-85
2021/11/11 01:45:30;;;;;;;13.00;7.63;;;3.70;99.90;;;;;;5015873;28;20030;-86
2021/11/11 01:47:57;;;;;;;15.40;7.90;;;3.60;99.90;;;;;;5015876;28;20021;-85
2021/11/11 01:50:24;;;;;;;13.95;7.57;;;3.80;99.90;;;;;;5015722;28;20034;-85
2021/11/11 01:52:50;;;;;;;13.50;7.32;;;3.80;99.90;;;;;;5015591;28;20394;-86
2021/11/11 01:55:16;;;;;;;12.80;7.60;;;3.80;99.90;;;;;;5015700;28;20102;-85
2021/11/11 01:57:42;;;;;;;11.90;7.10;;;4.10;99.90;;;;;;5015528;28;20025;-86
2021/11/11 02:00:13;;;;;;;12.52;6.53;;;4.30;99.90;;;;;;5015649;28;20022;-85
2021/11/11 02:02:39;;;;;;;11.45;6.93;;;4.40;99.90;;;;;;5015294;28;20156;-85
2021/11/11 02:05:05;;;;;;;16.05;7.45;;;4.40;99.90;;;;;;5015058;28;20029;-86
2021/11/11 02:07:31;;;;;;;13.90;6.32;;;4.00;99.90;;;;;;5015506;28;20025;-85
2021/11/11 02:09:57;;;;;;;13.35;6.68;;;4.00;99.90;;;;;;5015458;28;20075;-85
2021/11/11 02:12:22;;;;;;;16.42;7.20;;;4.20;99.90;;;;;;5033112;28;20359;-85
2021/11/11 02:14:48;;;;;;;14.73;7.70;;;4.20;99.90;;;;;;5015728;28;20048;-85
2021/11/11 02:17:14;;;;;;;13.57;7.70;;;4.30;99.90;;;;;;5015400;28;20026;-85
2021/11/11 02:20:10;;;;;;;11.98;6.72;;;4.00;99.90;;;;;;5015983;28;20026;-85
2021/11/11 02:22:37;;;;;;;14.27;8.00;;;4.00;99.90;;;;;;5015256;28;20132;-85
2021/11/11 02:25:15;;;;;;;13.73;7.70;;;3.80;99.90;;;;;;5033043;28;20029;-85
2021/11/11 02:27:43;;;;;;;13.95;6.72;;;3.90;99.90;;;;;;5015753;28;20030;-85
2021/11/11 02:30:11;;;;;;;12.90;7.57;;;3.90;99.90;;;;;;5015247;28;20032;-86
2021/11/11 02:32:37;;;;;;;15.55;7.72;;;3.90;99.90;;;;;;5015035;28;20025;-85
2021/11/11 02:35:07;;;;;;;15.05;7.40;;;3.80;99.90;;;;;;5015193;28;20478;-85
2021/11/11 02:37:33;;;;;;;14.48;7.25;;;3.60;99.90;;;;;;5033159;28;20018;-85
2021/11/11 02:40:03;;;;;;;13.13;7.00;;;3.60;99.90;;;;;;5015123;28;20112;-85
2021/11/11 02:42:28;;;;;;;13.18;7.18;;;3.80;99.90;;;;;;5032795;28;20017;-85
2021/11/11 02:44:59;;;;;;;11.30;6.50;;;3.80;99.90;;;;;;5015179;28;20022;-85
2021/11/11 02:47:26;;;;;;;15.00;7.45;;;3.80;99.90;;;;;;5032990;28;20025;-85
2021/11/11 02:49:51;;;;;;;12.48;7.20;;;3.90;99.90;;;;;;5015176;28;20021;-86
2021/11/11 02:52:18;;;;;;;13.52;7.10;;;3.80;99.90;;;;;;5015163;28;20032;-85
2021/11/11 02:54:45;;;;;;;12.90;6.90;;;4.00;99.90;;;;;;5014535;28;20108;-85
2021/11/11 02:57:22;;;;;;;13.48;7.68;;;4.00;99.90;;;;;;5016061;28;20462;-86
2021/11/11 02:59:49;;;;;;;10.23;7.32;;;3.80;99.90;;;;;;5014993;28;20047;-86
2021/11/11 03:02:26;;;;;;;12.10;7.65;;;3.60;99.90;;;;;;5015113;28;20029;-85
2021/11/11 03:04:53;;;;;;;11.57;6.78;;;3.60;99.90;;;;;;5015107;28;20452;-85
2021/11/11 03:07:19;;;;;;;12.43;5.97;;;3.60;99.90;;;;;;5032903;28;20106;-85
2021/11/11 03:09:45;;;;;;;10.45;6.03;;;4.00;99.90;;;;;;5014916;28;20034;-85
2021/11/11 03:12:11;;;;;;;11.25;7.22;;;3.90;99.90;;;;;;5014825;28;20025;-85
2021/11/11 03:14:37;;;;;;;12.13;7.28;;;3.90;99.90;;;;;;5015494;28;20527;-86
2021/11/11 03:17:04;;;;;;;12.45;7.35;;;3.70;99.90;;;;;;5036328;28;20097;-85
2021/11/11 03:19:32;;;;;;;13.52;7.55;;;3.40;99.90;;;;;;5018607;28;20052;-85
2021/11/11 03:21:58;;;;;;;12.48;6.95;;;3.20;99.90;;;;;;5018341;28;20119;-86
2021/11/11 03:24:24;;;;;;;9.27;5.90;;;3.40;99.90;;;;;;5018398;28;20026;-85
2021/11/11 03:26:50;;;;;;;10.10;7.32;;;3.70;99.90;;;;;;5036193;28;20032;-85
2021/11/11 03:29:16;;;;;;;11.10;7.68;;;3.70;99.90;;;;;;5018396;28;20029;-85
2021/11/11 03:31:42;;;;;;;15.68;7.15;;;3.60;99.90;;;;;;5018347;28;20061;-86
2021/11/11 03:34:08;;;;;;;11.35;7.22;;;3.50;99.90;;;;;;5018218;28;20060;-86
2021/11/11 03:36:33;;;;;;;13.90;7.45;;;3.70;99.90;;;;;;5018201;28;20025;-86
2021/11/11 03:38:59;;;;;;;10.60;6.25;;;3.80;99.90;;;;;;5018230;28;20474;-85
2021/11/11 03:41:25;;;;;;;11.60;6.85;;;3.80;99.90;;;;;;5035939;28;20021;-85
2021/11/11 03:43:51;;;;;;;11.52;7.20;;;3.80;99.90;;;;;;5018055;28;20029;-85
2021/11/11 03:46:17;;;;;;;12.63;7.38;;;3.50;99.90;;;;;;5018144;28;20037;-85
2021/11/11 03:48:43;;;;;;;12.30;7.05;;;3.50;99.90;;;;;;5018081;28;20508;-86
2021/11/11 03:51:09;;;;;;;12.07;7.20;;;3.30;99.90;;;;;;5018009;28;20033;-86
2021/11/11 03:53:35;;;;;;;16.63;7.55;;;3.10;99.90;;;;;;5017873;28;20120;-85
2021/11/11 03:56:01;;;;;;;12.98;6.90;;;2.90;99.90;;;;;;5018183;28;20030;-86
2021/11/11 03:58:27;;;;;;;10.00;6.53;;;3.00;99.90;;;;;;5035586;28;20026;-86
2021/11/11 04:00:53;;;;;;;16.25;8.10;;;3.20;99.90;;;;;;5017834;28;20112;-85
2021/11/11 04:03:19;;;;;;;13.20;7.13;;;3.50;99.90;;;;;;5017799;28;20108;-85
2021/11/11 04:05:45;;;;;;;12.85;7.22;;;3.70;99.90;;;;;;5017754;28;20083;-86
2021/11/11 04:08:10;;;;;;;11.40;7.20;;;4.00;99.90;;;;;;5017752;28;20021;-86
2021/11/11 04:10:36;;;;;;;12.52;6.90;;;4.10;99.90;;;;;;5017624;28;20116;-86
2021/11/11 04:13:06;;;;;;;12.25;7.22;;;3.80;99.90;;;;;;5035305;28;20021;-86
2021/11/11 04:15:32;;;;;;;14.80;7.85;;;3.50;99.90;;;;;;5017575;28;20486;-86
2021/11/11 04:17:59;;;;;;;13.38;6.63;;;3.30;99.90;;;;;;5017486;28;20108;-86
2021/11/11 04:20:26;;;;;;;13.75;7.22;;;3.40;99.90;;;;;;5017263;28;20116;-85
2021/11/11 04:22:53;;;;;;;13.23;7.10;;;3.50;99.90;;;;;;5017499;28;20076;-86
2021/11/11 04:28:19;;;;;;;10.75;6.50;;;3.60;99.90;;;;;;5006153;28;20398;-86
2021/11/11 04:30:48;;;;;;;10.27;6.82;;;3.70;99.90;;;;;;5035335;28;20032;-86
2021/11/11 04:33:15;;;;;;;8.70;6.32;;;3.80;99.90;;;;;;5017179;28;20025;-86
2021/11/11 04:35:45;;;;;;;12.18;6.38;;;4.00;99.90;;;;;;5017156;28;20425;-86
2021/11/11 04:51:56;;;;;;;13.90;6.70;;;4.10;99.90;;;;;;5035120;28;20032;-86
2021/11/11 05:00:27;;;;;;;11.43;7.10;;;4.20;99.90;;;;;;5035311;28;20370;-86
2021/11/11 05:05:13;;;;;;;9.93;6.43;;;4.20;99.90;;;;;;5035079;28;20036;-85
2021/11/11 05:07:39;;;;;;;11.85;7.13;;;4.10;99.90;;;;;;5016660;28;20025;-86
2021/11/11 05:10:05;;;;;;;14.10;7.03;;;4.00;99.90;;;;;;5016541;28;20371;-86
2021/11/11 05:12:31;;;;;;;11.70;7.30;;;3.80;99.90;;;;;;5016478;28;20401;-86
2021/11/11 05:14:57;;;;;;;10.23;7.40;;;3.70;99.90;;;;;;5016465;28;20021;-86
2021/11/11 05:17:24;;;;;;;10.65;7.30;;;3.40;99.90;;;;;;5016492;28;20025;-86
2021/11/11 05:19:51;;;;;;;14.18;7.57;;;3.50;99.90;;;;;;5016406;28;20092;-85
2021/11/11 05:22:17;;;;;;;9.52;6.07;;;3.00;99.90;;;;;;5016199;28;20053;-85
2021/11/11 05:24:43;;;;;;;12.05;7.45;;;3.10;99.90;;;;;;5016266;28;20026;-85
2021/11/11 05:27:11;;;;;;;14.00;7.97;;;3.20;99.90;;;;;;5016255;28;20033;-86
2021/11/11 05:29:36;;;;;;;12.20;7.15;;;3.00;99.90;;;;;;5016275;28;20124;-85
2021/11/11 05:32:03;;;;;;;13.95;7.72;;;3.10;99.90;;;;;;5016120;28;20116;-86
2021/11/11 05:34:28;;;;;;;12.27;7.60;;;3.00;99.90;;;;;;5016110;28;20029;-86
2021/11/11 05:36:54;;;;;;;13.13;8.20;;;3.00;99.90;;;;;;5016027;28;20521;-86
2021/11/11 05:39:20;;;;;;;10.88;6.18;;;3.10;99.90;;;;;;5033738;28;20025;-86
2021/11/11 05:41:46;;;;;;;15.32;8.15;;;3.20;99.90;;;;;;5015956;28;20022;-85
2021/11/11 05:44:12;;;;;;;12.30;7.95;;;3.30;99.90;;;;;;5015982;28;20524;-86
2021/11/11 05:46:37;;;;;;;12.13;7.45;;;3.30;99.90;;;;;;5015885;28;20025;-86
2021/11/11 05:49:03;;;;;;;11.23;7.30;;;3.60;99.90;;;;;;5016078;28;20503;-86
2021/11/11 05:51:29;;;;;;;11.48;6.78;;;3.50;99.90;;;;;;5015774;28;20025;-86
2021/11/11 05:53:55;;;;;;;12.82;7.20;;;3.70;99.90;;;;;;5015721;28;20425;-86
2021/11/11 05:56:20;;;;;;;10.15;7.32;;;3.90;99.90;;;;;;5015725;28;20071;-86
2021/11/11 05:58:46;;;;;;;13.02;8.43;;;3.80;99.90;;;;;;5015605;28;20076;-85
2021/11/11 06:01:12;;;;;;;17.42;8.52;;;3.60;99.90;;;;;;5033335;28;20021;-86
2021/11/11 06:03:38;;;;;;;10.27;6.93;;;3.60;99.90;;;;;;5015662;28;20493;-86
2021/11/11 06:06:04;;;;;;;10.27;6.90;;;3.70;99.90;;;;;;5015590;28;20083;-85
2021/11/11 06:08:30;;;;;;;21.58;11.48;;;3.80;99.90;;;;;;5015514;28;20053;-85
2021/11/11 06:10:56;;;;;;;11.27;7.05;;;4.00;99.90;;;;;;5015624;28;20045;-86
2021/11/11 06:13:22;;;;;;;20.10;10.25;;;3.90;99.90;;;;;;5015441;28;20405;-86
2021/11/11 06:15:51;;;;;;;18.25;9.95;;;3.90;99.90;;;;;;5015538;28;20060;-86
2021/11/11 06:18:16;;;;;;;14.10;7.72;;;3.80;99.90;;;;;;5015428;28;20026;-86
2021/11/11 06:20:48;;;;;;;14.70;7.95;;;3.80;99.90;;;;;;5015187;28;20102;-86
2021/11/11 06:23:14;;;;;;;13.00;8.23;;;3.90;99.90;;;;;;5015417;28;20026;-85
2021/11/11 06:25:40;;;;;;;15.80;8.50;;;4.10;99.90;;;;;;5015389;28;20025;-86
2021/11/11 06:28:08;;;;;;;11.80;7.97;;;4.10;99.90;;;;;;5015322;28;20030;-86
2021/11/11 06:30:34;;;;;;;21.23;10.93;;;4.20;99.90;;;;;;5033051;28;20044;-86
2021/11/11 06:33:00;;;;;;;16.17;9.82;;;3.90;99.90;;;;;;5033003;28;20026;-85
2021/11/11 06:35:28;;;;;;;13.93;8.55;;;3.70;99.90;;;;;;5015228;28;20021;-85
2021/11/11 06:37:54;;;;;;;19.73;10.40;;;3.70;99.90;;;;;;5015176;28;20043;-85
2021/11/11 06:40:20;;;;;;;18.67;11.23;;;3.80;99.90;;;;;;5015291;28;20048;-85
2021/11/11 06:42:45;;;;;;;15.88;10.30;;;3.50;99.90;;;;;;5032906;28;20029;-85
2021/11/11 06:45:12;;;;;;;18.55;11.00;;;3.20;99.90;;;;;;5015174;28;20553;-85
2021/11/11 06:47:39;;;;;;;13.68;9.05;;;2.90;99.90;;;;;;5015122;28;20053;-85
2021/11/11 06:50:06;;;;;;;13.52;8.35;;;3.10;99.90;;;;;;5034391;28;20504;-85
2021/11/11 06:52:32;;;;;;;15.57;9.20;;;3.40;99.90;;;;;;5019016;28;20025;-85
2021/11/11 06:54:58;;;;;;;10.88;7.55;;;3.50;99.90;;;;;;5037095;28;20442;-85
2021/11/11 06:57:24;;;;;;;13.65;8.05;;;3.60;99.90;;;;;;5018996;28;20029;-85
2021/11/11 06:59:49;;;;;;;15.63;7.95;;;3.80;99.90;;;;;;5018940;28;20024;-85
2021/11/11 07:02:15;;;;;;;16.35;9.55;;;3.90;99.90;;;;;;5019168;28;20028;-85
2021/11/11 07:04:41;;;;;;;16.45;10.23;;;3.80;99.90;;;;;;5036778;28;20397;-85
2021/11/11 07:07:07;;;;;;;18.88;11.07;;;3.70;99.90;;;;;;5019341;28;20080;-85
2021/11/11 07:09:33;;;;;;;17.67;10.60;;;3.40;99.90;;;;;;5019237;28;20044;-86
2021/11/11 07:11:59;;;;;;;14.10;8.57;;;3.50;99.90;;;;;;5019229;28;20485;-86
2021/11/11 07:14:24;;;;;;;18.45;9.90;;;3.90;99.90;;;;;;5019033;28;20127;-86
2021/11/11 07:16:50;;;;;;;17.58;10.68;;;4.00;99.90;;;;;;5018554;28;20021;-86
2021/11/11 07:19:16;;;;;;;14.00;8.00;;;3.90;99.90;;;;;;5018591;28;20026;-86
2021/11/11 07:21:42;;;;;;;17.42;9.80;;;4.10;99.90;;;;;;5018387;28;20068;-85
2021/11/11 07:24:07;;;;;;;11.55;7.68;;;4.30;99.90;;;;;;5036551;28;20028;-86
2021/11/11 07:26:33;;;;;;;17.83;8.88;;;4.40;99.90;;;;;;5018442;28;20021;-86
2021/11/11 07:28:59;;;;;;;17.52;9.60;;;4.60;99.90;;;;;;5018358;28;20032;-85
2021/11/11 07:31:26;;;;;;;20.13;11.80;;;4.80;99.90;;;;;;5018286;28;20359;-86
2021/11/11 07:33:55;;;;;;;12.93;7.68;;;4.70;99.90;;;;;;5018280;28;20037;-85
2021/11/11 07:36:21;;;;;;;13.82;9.27;;;4.70;99.90;;;;;;5018284;28;20029;-85
2021/11/11 07:38:47;;;;;;;17.77;9.45;;;5.00;99.90;;;;;;5018178;28;20104;-85
2021/11/11 07:41:13;;;;;;;16.13;9.95;;;5.10;99.90;;;;;;5018719;28;20029;-85
2021/11/11 07:43:39;;;;;;;17.02;10.00;;;5.20;99.90;;;;;;5018158;28;20491;-85
2021/11/11 07:46:06;;;;;;;14.98;8.63;;;5.10;99.90;;;;;;5018903;28;20485;-85
2021/11/11 07:48:32;;;;;;;13.27;8.90;;;5.50;99.90;;;;;;5018025;28;20397;-85
2021/11/11 07:51:03;;;;;;;13.88;8.70;;;5.40;99.90;;;;;;5018041;28;20033;-85
2021/11/11 07:53:29;;;;;;;17.38;8.90;;;5.40;99.90;;;;;;5017929;28;20107;-85
2021/11/11 07:55:56;;;;;;;16.70;8.95;;;5.70;99.90;;;;;;5035695;28;20029;-85
2021/11/11 07:58:22;;;;;;;15.15;8.68;;;5.60;99.90;;;;;;5017923;28;20489;-85
2021/11/11 08:00:48;;;;;;;17.85;8.98;;;5.80;99.90;;;;;;5017101;28;20474;-84
2021/11/11 08:03:14;;;;;;;19.25;11.30;;;5.60;99.90;;;;;;5017859;28;20036;-84
2021/11/11 08:05:41;;;;;;;20.30;11.20;;;5.30;99.90;;;;;;5017685;28;20128;-85
2021/11/11 08:08:09;;;;;;;18.30;9.95;;;5.10;99.90;;;;;;5017665;28;20028;-84
2021/11/11 08:10:35;;;;;;;16.38;8.57;;;5.10;99.90;;;;;;5017576;28;20087;-84
2021/11/11 08:13:02;;;;;;;14.65;9.52;;;5.30;99.90;;;;;;5017471;28;20021;-84
2021/11/11 08:15:28;;;;;;;15.55;9.77;;;5.70;99.90;;;;;;5017461;28;20450;-84
2021/11/11 08:17:54;;;;;;;16.40;9.73;;;5.70;99.90;;;;;;5017380;28;20025;-84
2021/11/11 08:20:20;;;;;;;17.45;8.88;;;5.70;99.90;;;;;;5017297;28;20026;-84
2021/11/11 08:22:48;;;;;;;19.52;9.02;;;5.80;99.90;;;;;;5017360;28;20029;-84
2021/11/11 08:25:15;;;;;;;20.15;10.25;;;6.10;99.90;;;;;;5017176;28;20029;-83
2021/11/11 08:27:42;;;;;;;16.27;9.95;;;6.00;99.90;;;;;;5017329;28;20026;-84
2021/11/11 08:30:12;;;;;;;15.20;7.65;;;6.10;99.90;;;;;;5017238;28;20026;-84
2021/11/11 08:32:40;;;;;;;13.68;8.18;;;6.20;99.90;;;;;;5017010;28;20105;-84
2021/11/11 08:35:07;;;;;;;11.52;8.02;;;6.60;99.90;;;;;;5017107;28;20026;-84
2021/11/11 08:37:33;;;;;;;18.48;8.90;;;6.90;99.90;;;;;;5017052;28;20025;-83
2021/11/11 08:39:58;;;;;;;18.00;11.02;;;6.90;99.90;;;;;;5017068;28;20393;-84
2021/11/11 08:42:24;;;;;;;18.35;9.25;;;6.80;99.90;;;;;;5016954;28;20127;-84
2021/11/11 08:44:51;;;;;;;15.88;10.82;;;6.80;99.90;;;;;;5017004;28;20489;-84
2021/11/11 08:47:18;;;;;;;15.80;10.05;;;6.90;99.90;;;;;;5016885;28;20037;-83
2021/11/11 08:49:45;;;;;;;19.33;9.20;;;7.10;99.90;;;;;;5016899;28;20124;-83
2021/11/11 08:52:13;;;;;;;15.75;9.70;;;7.30;99.90;;;;;;5016752;28;20025;-84
2021/11/11 08:54:39;;;;;;;17.83;10.13;;;7.40;99.90;;;;;;5016729;28;20587;-83
2021/11/11 08:57:06;;;;;;;19.80;10.32;;;7.50;99.90;;;;;;5016650;28;20037;-84
2021/11/11 08:59:32;;;;;;;16.08;9.23;;;7.60;99.90;;;;;;5016694;28;20025;-83
2021/11/11 09:01:57;;;;;;;16.40;10.27;;;7.70;99.90;;;;;;5034403;28;20017;-83
2021/11/11 09:04:23;;;;;;;15.50;9.18;;;7.80;99.90;;;;;;5016478;28;20033;-84
2021/11/11 09:06:50;;;;;;;17.45;10.23;;;8.00;99.90;;;;;;5034305;28;20148;-84
2021/11/11 09:09:18;;;;;;;22.08;11.73;;;8.10;99.90;;;;;;5016820;28;20030;-83
2021/11/11 09:11:45;;;;;;;16.75;9.38;;;8.30;99.90;;;;;;5024634;28;20036;-82
2021/11/11 09:14:11;;;;;;;16.02;10.05;;;8.40;99.90;;;;;;5023657;28;20021;-83
2021/11/11 09:16:37;;;;;;;15.15;8.98;;;8.60;99.90;;;;;;5017465;28;20407;-83
2021/11/11 09:19:06;;;;;;;17.73;10.52;;;8.80;99.90;;;;;;5016631;28;20026;-84
2021/11/11 09:21:33;;;;;;;13.30;9.13;;;9.00;99.90;;;;;;5016145;28;20453;-83
2021/11/11 09:23:59;;;;;;;17.55;10.63;;;9.00;99.90;;;;;;5016305;28;20052;-83
2021/11/11 09:26:26;;;;;;;18.88;9.65;;;8.90;99.90;;;;;;5034096;28;20037;-83
2021/11/11 09:28:52;;;;;;;23.27;11.88;;;8.80;99.90;;;;;;4983776;28;20490;-83
2021/11/11 09:31:18;;;;;;;21.15;11.32;;;8.60;99.90;;;;;;5016175;28;20029;-84
2021/11/11 09:33:46;;;;;;;18.48;10.15;;;8.80;99.90;;;;;;5016049;28;20121;-82
2021/11/11 09:36:14;;;;;;;17.95;8.55;;;9.00;99.90;;;;;;5033887;28;20018;-83
2021/11/11 09:38:41;;;;;;;18.30;10.75;;;9.30;99.90;;;;;;5016082;28;20052;-83
2021/11/11 09:41:09;;;;;;;16.00;9.63;;;9.30;99.90;;;;;;5016319;28;20031;-83
2021/11/11 09:43:37;;;;;;;19.05;9.50;;;9.40;99.90;;;;;;5015936;28;20120;-84
2021/11/11 09:46:04;;;;;;;14.25;8.43;;;9.60;99.90;;;;;;5016084;28;20022;-83
2021/11/11 09:48:32;;;;;;;17.27;9.32;;;9.80;99.90;;;;;;5015756;28;20029;-83
2021/11/11 09:50:58;;;;;;;14.40;9.13;;;10.20;99.90;;;;;;5016282;28;20036;-84
2021/11/11 09:53:24;;;;;;;15.95;9.93;;;10.20;99.90;;;;;;5033598;28;20032;-83
2021/11/11 09:58:45;;;;;;;13.27;8.23;;;10.40;99.90;;;;;;5034356;28;20040;-84
2021/11/11 10:01:21;;;;;;;15.60;10.00;;;10.60;99.90;;;;;;5033404;28;20071;-84
2021/11/11 10:03:49;;;;;;;19.23;9.38;;;10.90;99.90;;;;;;5015672;28;20478;-83
2021/11/11 10:06:21;;;;;;;18.20;10.40;;;11.10;99.90;;;;;;5015599;28;20034;-84
2021/11/11 10:09:12;;;;;;;19.75;10.52;;;11.10;99.90;;;;;;5015616;28;20021;-83
2021/11/11 10:11:49;;;;;;;21.15;11.98;;;11.30;99.90;;;;;;5015535;28;20029;-83
2021/11/11 10:14:19;;;;;;;19.60;11.10;;;11.50;99.90;;;;;;5015516;28;20504;-84
2021/11/11 10:16:51;;;;;;;18.98;12.27;;;11.50;99.90;;;;;;5033534;28;20021;-84
2021/11/11 10:19:18;;;;;;;18.65;11.50;;;11.50;99.90;;;;;;5033568;28;20111;-84
2021/11/11 10:22:05;;;;;;;22.13;13.90;;;11.70;99.90;;;;;;5015454;28;20173;-84
2021/11/11 10:24:55;;;;;;;16.88;10.55;;;11.90;99.90;;;;;;5014914;28;20423;-84
2021/11/11 10:27:28;;;;;;;18.40;9.85;;;11.90;99.90;;;;;;5015434;28;20025;-85
2021/11/11 10:30:02;;;;;;;21.20;12.02;;;12.30;99.90;;;;;;5015404;28;20037;-84
2021/11/11 10:32:31;;;;;;;;;;;12.80;99.90;;;;;;5015666;28;20037;-84
2021/11/11 10:35:03;;;;;;;22.67;12.40;;;12.90;99.90;;;;;;5015250;28;19913;-84
2021/11/11 10:37:32;;;;;;;24.73;13.00;;;13.50;99.90;;;;;;5015288;28;20032;-85
2021/11/11 10:40:07;;;;;;;30.23;16.85;;;13.70;99.90;;;;;;5015196;28;20175;-84
2021/11/11 10:42:34;;;;;;;29.73;14.32;;;13.70;99.90;;;;;;5015262;28;20112;-85
2021/11/11 10:45:04;;;;;;;23.05;12.88;;;13.90;99.90;;;;;;5015186;28;20037;-84
2021/11/11 10:47:33;;;;;;;15.85;9.43;;;14.20;99.90;;;;;;5015233;28;20507;-84
2021/11/11 10:50:02;;;;;;;20.88;11.95;;;14.40;99.90;;;;;;5015240;28;20037;-84
2021/11/11 10:52:34;;;;;;;21.73;12.48;;;14.80;99.90;;;;;;5015986;28;20398;-84
2021/11/11 10:55:22;;;;;;;22.02;11.10;;;14.80;99.90;;;;;;5015439;28;20103;-85
2021/11/11 10:57:51;;;;;;;21.63;12.25;;;14.70;99.90;;;;;;4919525;29;20092;-84
2021/11/11 11:00:50;;;;;;;15.02;9.40;;;14.60;99.90;;;;;;4918040;29;20027;-84
2021/11/11 11:03:23;;;;;;;17.45;9.00;;;15.10;99.90;;;;;;4917857;29;20050;-85
2021/11/11 11:05:54;;;;;;;17.88;11.00;;;15.00;99.90;;;;;;4933821;29;20048;-85
2021/11/11 11:08:26;;;;;;;19.73;11.95;;;14.70;99.90;;;;;;4917571;29;20046;-81
2021/11/11 11:11:01;;;;;;;20.17;12.07;;;14.80;99.90;;;;;;4917535;29;20032;-85
2021/11/11 11:13:32;;;;;;;18.80;12.05;;;15.20;99.90;;;;;;4917529;29;20024;-84
2021/11/11 11:16:03;;;;;;;19.75;12.98;;;15.10;99.90;;;;;;4935987;29;20032;-85
2021/11/11 11:18:33;;;;;;;30.10;14.75;;;15.50;99.90;;;;;;4928583;29;20024;-85
2021/11/11 11:21:10;;;;;;;20.27;12.95;;;15.70;99.90;;;;;;4936235;29;20050;-85
2021/11/11 11:23:42;;;;;;;18.10;12.18;;;15.80;99.90;;;;;;4924175;29;20118;-85
2021/11/11 11:26:18;;;;;;;18.67;12.45;;;15.70;99.90;;;;;;4919032;29;20039;-85
2021/11/11 11:29:13;;;;;;;24.00;16.17;;;15.40;99.90;;;;;;4934847;29;20401;-85
2021/11/11 11:31:47;;;;;;;23.20;14.90;;;15.40;99.90;;;;;;4917490;29;20031;-85
2021/11/11 11:34:25;;;;;;;21.70;13.70;;;16.00;99.90;;;;;;4943335;28;20113;-86
2021/11/11 11:36:59;;;;;;;20.75;12.98;;;17.00;99.90;;;;;;5017447;28;20030;-85
2021/11/11 11:39:26;;;;;;;22.67;15.02;;;17.30;99.90;;;;;;5018380;28;20549;-85
2021/11/11 11:41:53;;;;;;;25.45;16.67;;;16.80;99.90;;;;;;5018301;28;20088;-86
2021/11/11 11:44:39;;;;;;;26.45;14.98;;;16.80;99.90;;;;;;5018168;28;20060;-85
2021/11/11 11:47:44;;;;;;;26.30;15.85;;;17.30;99.90;;;;;;5017554;28;20041;-85
2021/11/11 11:50:26;;;;;;;23.25;14.27;;;17.60;99.90;;;;;;4967615;28;20103;-85
2021/11/11 11:52:58;;;;;;;22.50;14.73;;;18.40;99.90;;;;;;5018172;28;20037;-84
2021/11/11 11:55:34;;;;;;;20.58;14.75;;;18.60;99.90;;;;;;5018025;28;20018;-86
2021/11/11 11:58:09;;;;;;;17.33;11.73;;;19.00;99.90;;;;;;5002999;28;20048;-86
2021/11/11 12:00:58;;;;;;;20.25;12.55;;;18.70;99.90;;;;;;5017922;28;20444;-86
2021/11/11 12:40:04;;;;;;;20.33;13.88;;;20.90;93.00;;;;;;5035479;28;20080;-82
2021/11/11 12:43:00;;;;;;;25.60;12.80;;;21.00;92.60;;;;;;5017062;28;20025;-82
2021/11/11 12:45:36;;;;;;;21.55;14.13;;;21.00;92.20;;;;;;5017001;28;20040;-82
2021/11/11 12:48:11;;;;;;;20.40;13.73;;;21.30;92.20;;;;;;5016347;28;20029;-83
2021/11/11 12:50:49;;;;;;;24.05;16.40;;;21.20;92.10;;;;;;5017003;28;20060;-82
2021/11/11 12:53:15;;;;;;;18.27;13.85;;;20.80;92.50;;;;;;5016860;28;20393;-83
2021/11/11 12:55:55;;;;;;;22.85;12.32;;;21.20;91.70;;;;;;5016891;28;20021;-82
2021/11/11 12:58:32;;;;;;;22.77;14.27;;;21.80;91.00;;;;;;5034592;28;20084;-82
2021/11/11 13:01:02;;;;;;;18.80;11.90;;;21.60;90.90;;;;;;5034835;28;20087;-82
2021/11/11 13:03:51;;;;;;;19.08;13.32;;;21.90;89.40;;;;;;5016685;28;20025;-82
2021/11/11 13:06:37;;;;;;;19.05;13.30;;;21.70;90.10;;;;;;5034450;28;20025;-83
2021/11/11 13:09:14;;;;;;;16.92;13.15;;;21.70;89.20;;;;;;5016654;28;20029;-82
2021/11/11 13:11:46;;;;;;;19.95;10.70;;;21.60;89.00;;;;;;5034281;28;20024;-82
2021/11/11 13:14:23;;;;;;;18.85;13.43;;;21.60;87.60;;;;;;5016462;28;20513;-82
2021/11/11 13:16:55;;;;;;;17.13;13.23;;;21.80;88.30;;;;;;5016448;28;20393;-82
2021/11/11 13:19:49;;;;;;;17.58;12.55;;;22.10;86.80;;;;;;5016350;28;20367;-82
2021/11/11 13:22:34;;;;;;;17.13;11.05;;;21.60;87.30;;;;;;5016200;28;20053;-82
2021/11/11 13:28:31;;;;;;;16.80;11.05;;;21.20;88.10;;;;;;5035821;28;19959;-82
2021/11/11 16:00:06;;;;;;;38.05;23.23;;;8.20;99.90;;;;;;5035964;28;20033;-81
2021/11/11 16:26:56;;;;;;;46.08;25.35;;;7.40;99.90;;;;;;5035549;28;20063;-81
2021/11/11 16:29:24;;;;;;;44.00;22.98;;;7.30;99.90;;;;;;5017392;28;20474;-81
2021/11/11 16:31:51;;;;;;;32.55;17.23;;;7.30;99.90;;;;;;5017401;28;20021;-81
2021/11/11 16:34:17;;;;;;;38.00;21.75;;;7.20;99.90;;;;;;5034996;28;20033;-81
2021/11/11 16:36:43;;;;;;;39.65;25.25;;;7.20;99.90;;;;;;5017201;28;20022;-81
2021/11/11 16:39:11;;;;;;;46.20;24.73;;;7.10;99.90;;;;;;5017684;28;20032;-81
2021/11/11 16:41:39;;;;;;;36.60;21.30;;;7.00;99.90;;;;;;5017084;28;20022;-81
2021/11/11 16:44:05;;;;;;;26.17;17.05;;;6.90;99.90;;;;;;5017043;28;20389;-81
2021/11/11 16:46:35;;;;;;;32.38;20.80;;;6.90;99.90;;;;;;5034790;28;20022;-83
2021/11/11 16:49:01;;;;;;;49.30;28.27;;;6.90;99.90;;;;;;5017042;28;20025;-82